Time;durP1;ratioP1;P1;durP2;ratioP2;P2;SDS_P1;SDS_P2;PMS_P1;PMS_P2;Temp;Humidity;BMP_temperature;BMP_pressure;BME280_temperature;BME280_humidity;BME280_pressure;Samples;Min_cycle;Max_cycle;Signal;HPM_P1;HPM_P2
2022/11/14 00:01:22;;;;;;;60.75;39.38;;;;;;;7.36;69.92;95735.75;4143595;28;20490;-73
2022/11/14 00:03:24;;;;;;;52.92;36.28;;;;;;;7.44;69.50;95736.94;4144748;28;20072;-73
2022/11/14 00:05:26;;;;;;;56.53;37.92;;;;;;;7.49;69.23;95732.22;4143288;28;20049;-71
2022/11/14 00:07:32;;;;;;;56.03;37.17;;;;;;;7.56;68.75;95723.00;4144696;28;20077;-71
2022/11/14 00:09:33;;;;;;;57.35;37.25;;;;;;;7.58;68.85;95731.53;4142475;28;20080;-71
2022/11/14 00:11:35;;;;;;;60.83;39.80;;;;;;;7.66;68.93;95726.59;4137566;28;20100;-73
2022/11/14 00:13:37;;;;;;;58.00;37.33;;;;;;;7.69;68.14;95735.94;4144066;28;20424;-70
2022/11/14 00:15:39;;;;;;;55.22;35.70;;;;;;;7.70;68.04;95733.22;4143208;28;20097;-74
2022/11/14 00:17:41;;;;;;;49.65;33.95;;;;;;;7.69;67.97;95733.34;4142536;28;20607;-71
2022/11/14 00:19:43;;;;;;;54.63;37.90;;;;;;;7.70;68.01;95733.22;4144647;28;20073;-71
2022/11/14 00:21:45;;;;;;;49.72;33.78;;;;;;;7.71;68.31;95734.88;4143613;28;20127;-69
2022/11/14 00:23:47;;;;;;;56.95;35.75;;;;;;;7.71;68.32;95736.66;4144146;28;20119;-72
2022/11/14 00:25:48;;;;;;;55.60;36.03;;;;;;;7.71;68.75;95734.88;4144440;28;20083;-71
2022/11/14 00:27:50;;;;;;;54.70;36.53;;;;;;;7.71;67.88;95731.44;4143744;28;20619;-70
2022/11/14 00:29:52;;;;;;;56.20;35.78;;;;;;;7.69;68.51;95728.13;4143369;28;20057;-71
2022/11/14 00:31:53;;;;;;;51.63;35.63;;;;;;;7.75;67.68;95730.25;4142885;28;20085;-72
2022/11/14 00:33:55;;;;;;;57.28;37.88;;;;;;;7.76;68.26;95731.91;4144398;28;20129;-73
2022/11/14 00:35:57;;;;;;;61.47;39.55;;;;;;;7.75;68.51;95733.69;4145545;28;20136;-70
2022/11/14 00:37:58;;;;;;;59.47;38.30;;;;;;;7.68;67.58;95731.66;4143902;28;20183;-72
2022/11/14 00:40:00;;;;;;;63.88;39.92;;;;;;;7.66;68.59;95726.59;4142710;28;20050;-71
2022/11/14 00:42:02;;;;;;;58.92;37.97;;;;;;;7.66;67.78;95728.34;4143754;28;20053;-70
2022/11/14 00:44:04;;;;;;;58.33;39.05;;;;;;;7.69;68.12;95731.56;4142691;28;20046;-71
2022/11/14 00:46:05;;;;;;;58.95;40.03;;;;;;;7.69;68.41;95731.56;4143394;28;20164;-74
2022/11/14 00:48:07;;;;;;;65.47;40.90;;;;;;;7.67;68.54;95732.63;4143930;28;20241;-74
2022/11/14 00:50:09;;;;;;;65.13;40.95;;;;;;;7.67;68.12;95733.44;4144264;28;20156;-75
2022/11/14 00:52:11;;;;;;;58.50;38.78;;;;;;;7.69;67.92;95731.56;4144359;28;20092;-74
2022/11/14 00:54:12;;;;;;;62.83;40.35;;;;;;;7.65;68.43;95724.91;4126222;28;20142;-76
2022/11/14 00:56:14;;;;;;;59.15;40.08;;;;;;;7.63;68.62;95723.38;4139288;28;20176;-74
2022/11/14 00:58:16;;;;;;;56.83;35.72;;;;;;;7.65;68.43;95721.47;4143372;28;20474;-74
2022/11/14 01:00:18;;;;;;;56.55;37.53;;;;;;;7.59;67.87;95730.56;4143079;28;20057;-74
2022/11/14 01:02:20;;;;;;;55.88;38.80;;;;;;;7.59;68.43;95723.59;4142675;28;20088;-73
2022/11/14 01:04:22;;;;;;;62.60;40.92;;;;;;;7.61;68.48;95726.06;4143615;28;20542;-75
2022/11/14 01:06:23;;;;;;;61.00;39.75;;;;;;;7.61;67.96;95726.06;4143468;28;20110;-73
2022/11/14 01:08:25;;;;;;;57.00;37.03;;;;;;;7.65;67.79;95714.47;4141631;28;20867;-73
2022/11/14 01:10:27;;;;;;;62.50;39.35;;;;;;;7.56;68.55;95715.19;4143307;28;20112;-74
2022/11/14 01:12:29;;;;;;;62.13;39.50;;;;;;;7.57;67.93;95714.22;4140814;28;20461;-74
2022/11/14 01:14:30;;;;;;;56.35;39.45;;;;;;;7.60;67.67;95716.59;4143393;28;20657;-75
2022/11/14 01:16:32;;;;;;;55.75;38.38;;;;;;;7.54;68.15;95717.06;4142134;28;20408;-73
2022/11/14 01:18:35;;;;;;;63.40;38.53;;;;;;;7.58;68.12;95721.94;4143194;28;20196;-74
2022/11/14 01:20:41;;;;;;;66.35;40.72;;;;;;;7.46;68.03;95720.22;4143160;28;20591;-75
2022/11/14 01:22:42;;;;;;;59.13;40.28;;;;;;;7.09;68.79;95716.94;4143606;28;20123;-74
2022/11/14 01:24:44;;;;;;;59.33;38.45;;;;;;;7.02;69.77;95720.94;4145830;28;20467;-74
2022/11/14 01:26:46;;;;;;;63.13;41.45;;;;;;;6.96;70.00;95717.00;4144226;28;20045;-73
2022/11/14 01:28:47;;;;;;;57.05;39.30;;;;;;;7.00;69.96;95717.63;4146019;28;20087;-75
2022/11/14 01:30:49;;;;;;;60.03;38.75;;;;;;;7.07;69.87;95711.00;4145929;28;20068;-75
2022/11/14 01:32:51;;;;;;;56.70;38.15;;;;;;;7.14;69.59;95712.19;4144005;28;20119;-74
2022/11/14 01:34:53;;;;;;;56.38;36.92;;;;;;;7.13;69.25;95716.59;4144704;28;20140;-74
2022/11/14 01:36:54;;;;;;;57.28;39.40;;;;;;;7.16;69.26;95711.16;4128040;28;20054;-74
2022/11/14 01:38:56;;;;;;;55.95;37.75;;;;;;;7.21;69.33;95703.00;4123012;28;20246;-74
2022/11/14 01:40:58;;;;;;;58.35;39.17;;;;;;;7.24;68.61;95697.56;4137231;28;20065;-75
2022/11/14 01:43:15;;;;;;;68.15;42.67;;;;;;;7.22;68.64;95694.22;4132592;28;20129;-74
2022/11/14 01:45:55;;;;;;;65.55;43.70;;;;;;;6.86;69.06;95701.22;4131558;28;20068;-74
2022/11/14 01:47:57;;;;;;;65.80;40.60;;;;;;;6.38;70.65;95701.19;4127719;28;20145;-71
2022/11/14 01:50:01;;;;;;;60.92;38.05;;;;;;;6.10;71.79;95697.09;4140345;28;20050;-72
2022/11/14 01:52:13;;;;;;;;;;;;;;;6.04;72.12;95693.13;4145059;28;20113;-70
2022/11/14 01:54:30;;;;;;;57.35;37.47;;;;;;;6.01;72.04;95690.75;4145660;28;20001;-72
2022/11/14 01:56:45;;;;;;;71.70;45.92;;;;;;;5.37;73.66;95705.53;4104974;28;1160406;-72
2022/11/14 01:59:17;;;;;;;77.80;51.35;;;;;;;5.18;74.62;95693.75;4135813;28;20081;-73
2022/11/14 02:01:19;;;;;;;101.88;64.13;;;;;;;5.03;75.29;95689.56;4145393;28;20060;-70
2022/11/14 02:03:20;;;;;;;90.13;56.33;;;;;;;5.12;75.53;95695.00;4146176;28;20077;-72
2022/11/14 02:05:22;;;;;;;94.38;56.95;;;;;;;5.37;75.00;95679.53;4146677;28;20081;-71
2022/11/14 02:07:26;;;;;;;85.07;55.50;;;;;;;5.61;74.12;95680.47;4146770;28;20145;-72
2022/11/14 02:09:31;;;;;;;91.32;56.28;;;;;;;5.79;72.84;95673.19;4143550;28;20060;-72
2022/11/14 02:11:36;;;;;;;96.65;57.15;;;;;;;5.87;71.63;95677.84;4134800;28;20057;-72
2022/11/14 02:13:38;;;;;;;91.13;54.65;;;;;;;5.37;72.42;95682.13;4138643;28;20125;-71
2022/11/14 02:15:40;;;;;;;76.35;48.03;;;;;;;4.95;74.60;95678.84;4140182;28;20058;-70
2022/11/14 02:17:43;;;;;;;82.70;51.45;;;;;;;4.40;75.98;95685.84;4144287;28;20054;-73
2022/11/14 02:19:50;;;;;;;86.15;51.47;;;;;;;4.19;77.24;95675.03;4146267;28;20054;-71
2022/11/14 02:21:52;;;;;;;87.93;52.65;;;;;;;4.21;77.79;95673.19;4146881;28;20722;-70
2022/11/14 02:23:54;;;;;;;80.38;51.55;;;;;;;4.43;77.99;95670.06;4144538;28;20080;-73
2022/11/14 02:25:56;;;;;;;88.70;50.95;;;;;;;4.72;77.88;95668.22;4146736;28;20054;-72
2022/11/14 02:27:59;;;;;;;80.15;51.60;;;;;;;4.99;76.21;95657.78;4141734;28;20137;-71
2022/11/14 02:30:13;;;;;;;83.40;52.22;;;;;;;5.24;74.61;95661.34;4144932;28;20358;-72
2022/11/14 02:32:15;;;;;;;90.65;55.67;;;;;;;5.19;74.52;95655.63;4142578;28;20512;-72
2022/11/14 02:34:19;;;;;;;79.80;51.33;;;;;;;5.34;74.59;95663.22;4146047;28;20041;-72
2022/11/14 02:36:20;;;;;;;;;;;;;;;5.42;73.10;95662.72;4145625;28;20428;-72
2022/11/14 02:38:22;;;;;;;85.32;52.92;;;;;;;5.55;72.79;95667.91;4144190;28;19987;-76
2022/11/14 02:40:23;;;;;;;77.43;51.45;;;;;;;5.72;72.50;95666.72;4146042;28;20141;-75
2022/11/14 02:42:25;;;;;;;90.45;56.40;;;;;;;5.79;72.23;95665.38;4146152;28;20065;-74
2022/11/14 02:44:27;;;;;;;91.95;55.00;;;;;;;5.88;71.31;95671.72;4141500;28;20149;-75
2022/11/14 02:46:28;;;;;;;86.32;54.05;;;;;;;5.97;71.41;95668.50;4144419;28;20159;-74
2022/11/14 02:48:30;;;;;;;87.07;52.22;;;;;;;6.07;71.09;95664.31;4146819;28;20120;-74
2022/11/14 02:50:32;;;;;;;73.95;49.78;;;;;;;6.19;70.46;95659.19;4146791;28;20049;-73
2022/11/14 02:52:34;;;;;;;77.55;50.17;;;;;;;6.23;69.80;95660.63;4154406;28;20133;-73
2022/11/14 02:54:36;;;;;;;75.65;50.58;;;;;;;6.27;70.17;95657.69;4145916;28;20081;-75
2022/11/14 02:56:38;;;;;;;78.15;50.25;;;;;;;6.31;70.04;95666.97;4145813;28;20140;-75
2022/11/14 02:58:39;;;;;;;75.13;48.92;;;;;;;6.29;69.64;95660.19;4145866;28;20125;-74
2022/11/14 03:00:41;;;;;;;79.65;48.88;;;;;;;6.30;69.73;95662.72;4143682;28;20497;-74
2022/11/14 03:03:02;;;;;;;75.55;48.10;;;;;;;6.32;69.40;95660.81;4145213;28;20046;-74
2022/11/14 03:05:04;;;;;;;81.65;50.47;;;;;;;6.32;69.58;95659.97;4145392;28;20137;-74
2022/11/14 03:07:06;;;;;;;78.10;50.90;;;;;;;6.35;69.47;95654.56;4145850;28;20137;-71
2022/11/14 03:09:08;;;;;;;70.57;47.58;;;;;;;6.31;70.01;95650.53;4144603;28;20081;-72
2022/11/14 03:11:10;;;;;;;83.03;49.45;;;;;;;6.36;69.87;95656.22;4127634;28;20086;-71
2022/11/14 03:13:12;;;;;;;79.40;51.97;;;;;;;6.41;69.36;95656.75;4138471;28;20050;-71
2022/11/14 03:15:14;;;;;;;83.30;55.25;;;;;;;6.43;69.00;95664.41;4145089;28;20129;-72
2022/11/14 03:17:15;;;;;;;86.15;55.38;;;;;;;6.43;69.24;95660.06;4143371;28;20535;-71
2022/11/14 03:19:18;;;;;;;88.97;59.72;;;;;;;6.42;69.14;95655.78;4145627;28;20077;-71
2022/11/14 03:21:22;;;;;;;78.07;54.92;;;;;;;6.47;69.36;95648.47;4145438;28;20437;-71
2022/11/14 03:23:24;;;;;;;85.57;57.47;;;;;;;6.53;68.94;95647.19;4144974;28;20054;-71
2022/11/14 03:25:26;;;;;;;76.50;52.53;;;;;;;6.51;68.32;95652.50;4145585;28;20136;-73
2022/11/14 03:27:27;;;;;;;74.38;49.72;;;;;;;6.53;68.63;95647.19;4145419;28;20420;-74
2022/11/14 03:29:29;;;;;;;79.20;50.10;;;;;;;6.51;68.41;95649.91;4145366;28;20406;-75
2022/11/14 03:31:31;;;;;;;77.20;50.28;;;;;;;6.51;68.64;95652.50;4144445;28;20089;-73
2022/11/14 03:33:33;;;;;;;77.43;54.25;;;;;;;6.50;68.73;95647.44;4145718;28;20053;-73
2022/11/14 03:35:34;;;;;;;75.78;51.78;;;;;;;6.46;68.90;95652.03;4145239;28;20472;-74
2022/11/14 03:37:36;;;;;;;76.00;50.45;;;;;;;6.43;68.80;95647.03;4145248;28;20574;-74
2022/11/14 03:39:38;;;;;;;72.97;47.95;;;;;;;6.47;68.43;95643.25;4144839;28;20392;-74
2022/11/14 03:41:39;;;;;;;76.30;52.30;;;;;;;6.51;68.48;95647.28;4144724;28;20070;-74
2022/11/14 03:43:41;;;;;;;78.57;60.03;;;;;;;6.53;68.71;95642.81;4140980;28;20080;-73
2022/11/14 03:45:43;;;;;;;76.05;45.95;;;;;;;6.53;68.65;95644.59;4142771;28;20057;-74
2022/11/14 03:47:44;;;;;;;65.80;41.78;;;;;;;6.46;68.60;95648.59;4142994;28;20080;-74
2022/11/14 03:49:46;;;;;;;69.72;42.97;;;;;;;6.36;68.81;95643.19;4144943;28;20046;-75
2022/11/14 03:51:49;;;;;;;71.72;43.42;;;;;;;6.26;68.76;95656.06;4142008;28;20077;-73
2022/11/14 03:53:51;;;;;;;65.15;41.67;;;;;;;6.18;69.20;95654.94;4144487;28;20496;-74
2022/11/14 03:55:53;;;;;;;66.72;43.10;;;;;;;6.10;69.20;95656.28;4143356;28;20135;-74
2022/11/14 03:57:54;;;;;;;71.93;44.28;;;;;;;6.02;69.07;95650.78;4143631;28;20637;-73
2022/11/14 03:59:56;;;;;;;68.63;44.17;;;;;;;5.81;69.84;95644.47;4143594;28;20463;-74
2022/11/14 04:01:58;;;;;;;70.13;44.17;;;;;;;5.59;70.48;95645.94;4143771;28;20058;-73
2022/11/14 04:03:59;;;;;;;69.50;45.22;;;;;;;5.61;71.15;95653.66;4144982;28;20121;-74
2022/11/14 04:06:02;;;;;;;73.80;46.75;;;;;;;5.72;71.04;95651.97;4144696;28;20125;-73
2022/11/14 04:08:04;;;;;;;67.72;45.17;;;;;;;5.86;70.32;95648.41;4143149;28;20096;-73
2022/11/14 04:10:07;;;;;;;63.63;43.55;;;;;;;5.99;69.82;95645.00;4131847;28;20376;-75
2022/11/14 04:12:08;;;;;;;69.85;44.08;;;;;;;6.08;69.13;95644.34;4144647;28;20469;-75
2022/11/14 04:14:16;;;;;;;70.55;44.50;;;;;;;6.11;69.06;95647.56;4143486;28;20053;-75
2022/11/14 04:16:18;;;;;;;70.03;43.97;;;;;;;6.22;69.93;95648.59;4143770;28;20102;-73
2022/11/14 04:18:19;;;;;;;68.35;44.15;;;;;;;6.32;69.50;95644.34;4144765;28;20073;-73
2022/11/14 04:20:21;;;;;;;71.40;43.08;;;;;;;6.39;68.86;95642.16;4144673;28;20093;-74
2022/11/14 04:22:22;;;;;;;67.20;42.67;;;;;;;6.37;68.28;95642.28;4144769;28;20457;-76
2022/11/14 04:24:24;;;;;;;70.30;46.13;;;;;;;6.36;67.84;95640.59;4142698;28;20046;-75
2022/11/14 04:26:26;;;;;;;71.40;43.78;;;;;;;6.22;67.54;95652.00;4144484;28;20072;-74
2022/11/14 04:28:27;;;;;;;68.78;44.80;;;;;;;6.24;68.43;95647.53;4143141;28;20046;-74
2022/11/14 04:30:29;;;;;;;69.88;45.60;;;;;;;6.20;67.84;95642.66;4144181;28;20155;-74
2022/11/14 04:32:35;;;;;;;66.43;44.33;;;;;;;6.15;67.81;95638.59;4144168;28;20050;-74
2022/11/14 04:34:37;;;;;;;64.90;43.88;;;;;;;6.15;68.06;95637.75;4144706;28;20057;-73
2022/11/14 04:36:39;;;;;;;69.05;43.65;;;;;;;6.11;68.16;95641.53;4142965;28;20449;-74
2022/11/14 04:38:41;;;;;;;71.05;44.53;;;;;;;6.07;68.50;95640.91;4126510;28;20394;-74
2022/11/14 04:40:50;;;;;;;66.75;41.78;;;;;;;6.11;68.55;95644.13;4144489;28;20046;-73
2022/11/14 04:42:51;;;;;;;65.55;41.70;;;;;;;6.12;68.22;95632.78;4141586;28;20047;-74
2022/11/14 04:44:53;;;;;;;62.38;39.97;;;;;;;6.13;68.01;95637.88;4142012;28;20373;-73
2022/11/14 04:46:56;;;;;;;65.40;39.72;;;;;;;6.18;68.59;95628.91;4143453;28;20089;-74
2022/11/14 04:48:57;;;;;;;66.97;42.15;;;;;;;6.21;68.10;95626.91;4144571;28;20353;-74
2022/11/14 04:50:59;;;;;;;66.13;41.33;;;;;;;6.14;68.43;95636.09;4144607;28;20113;-75
2022/11/14 04:53:01;;;;;;;80.35;48.88;;;;;;;6.17;68.68;95635.06;4143115;28;20487;-74
2022/11/14 04:55:03;;;;;;;74.07;45.38;;;;;;;6.13;67.99;95635.28;4142765;28;20085;-75
2022/11/14 04:57:04;;;;;;;66.43;42.88;;;;;;;5.99;68.13;95632.81;4145796;28;20080;-76
2022/11/14 04:59:06;;;;;;;66.38;41.40;;;;;;;5.91;68.12;95629.88;4145183;28;20480;-74
2022/11/14 05:01:09;;;;;;;59.35;39.65;;;;;;;5.85;69.12;95622.50;4138435;28;20464;-74
2022/11/14 05:03:11;;;;;;;58.85;38.70;;;;;;;5.84;68.79;95629.47;4146662;28;20061;-75
2022/11/14 05:05:12;;;;;;;62.05;36.67;;;;;;;5.86;69.18;95629.38;4146141;28;20116;-72
2022/11/14 05:07:14;;;;;;;63.20;37.88;;;;;;;5.83;69.66;95627.84;4145563;28;20066;-74
2022/11/14 05:09:16;;;;;;;61.90;37.60;;;;;;;5.83;69.61;95629.59;4152103;28;20085;-76
2022/11/14 05:11:19;;;;;;;66.18;39.05;;;;;;;5.81;69.37;95631.47;4146146;28;20132;-79
2022/11/14 05:13:25;;;;;;;59.83;37.35;;;;;;;5.68;69.52;95637.53;4139077;28;20494;-74
2022/11/14 05:15:27;;;;;;;59.22;38.70;;;;;;;5.51;69.92;95641.28;4140233;28;20129;-77
2022/11/14 05:17:29;;;;;;;64.80;38.97;;;;;;;5.29;70.48;95643.66;4142327;28;20050;-71
2022/11/14 05:19:30;;;;;;;61.53;38.10;;;;;;;5.20;71.48;95639.91;4143898;28;20402;-72
2022/11/14 05:21:32;;;;;;;56.65;38.28;;;;;;;5.25;71.71;95653.44;4144020;28;20228;-74
2022/11/14 05:23:34;;;;;;;66.32;39.72;;;;;;;5.17;70.79;95655.72;4143821;28;20519;-73
2022/11/14 05:25:35;;;;;;;62.70;39.08;;;;;;;5.21;71.67;95652.00;4144005;28;20050;-73
2022/11/14 05:27:37;;;;;;;67.22;38.45;;;;;;;5.16;71.56;95654.03;4143943;28;20060;-71
2022/11/14 05:29:39;;;;;;;68.80;39.67;;;;;;;5.20;71.82;95650.31;4142666;28;20481;-73
2022/11/14 05:31:40;;;;;;;66.85;40.10;;;;;;;5.33;72.23;95652.91;4141938;28;20096;-75
2022/11/14 05:33:43;;;;;;;67.50;40.05;;;;;;;5.44;71.25;95660.84;4143418;28;20073;-74
2022/11/14 05:35:45;;;;;;;65.30;40.33;;;;;;;5.54;71.04;95648.03;4143745;28;20084;-72
2022/11/14 05:37:46;;;;;;;78.53;42.95;;;;;;;5.64;71.01;95656.06;4144043;28;20061;-74
2022/11/14 05:39:48;;;;;;;74.28;43.28;;;;;;;5.71;70.91;95655.50;4143883;28;20640;-72
2022/11/14 05:41:50;;;;;;;72.47;44.20;;;;;;;5.78;70.98;95645.50;4143499;28;20058;-73
2022/11/14 05:43:51;;;;;;;71.35;43.22;;;;;;;5.83;70.57;95650.38;4140164;28;20049;-72
2022/11/14 05:45:53;;;;;;;77.28;44.25;;;;;;;5.96;70.21;95648.66;4142305;28;20145;-73
2022/11/14 05:47:55;;;;;;;82.55;43.15;;;;;;;5.98;69.94;95651.13;4143351;28;20623;-72
2022/11/14 05:49:57;;;;;;;71.80;41.15;;;;;;;5.97;69.86;95654.66;4136393;28;20103;-73
2022/11/14 05:51:59;;;;;;;67.47;40.80;;;;;;;5.95;70.17;95659.97;4143908;28;20122;-73
2022/11/14 05:54:01;;;;;;;69.72;41.38;;;;;;;5.97;70.20;95659.88;4142091;28;20088;-73
2022/11/14 05:56:04;;;;;;;75.45;43.50;;;;;;;5.89;70.84;95658.63;4142145;28;20147;-74
2022/11/14 05:58:06;;;;;;;76.28;41.92;;;;;;;5.89;70.84;95653.41;4126249;28;20050;-75
2022/11/14 06:00:08;;;;;;;72.13;41.92;;;;;;;5.95;71.11;95654.78;4140808;28;20084;-73
2022/11/14 06:02:10;;;;;;;75.30;41.97;;;;;;;6.03;70.70;95657.66;4136930;28;20053;-73
2022/11/14 06:04:13;;;;;;;71.63;40.35;;;;;;;6.03;70.98;95659.44;4143632;28;20049;-74
2022/11/14 06:06:17;;;;;;;67.78;40.90;;;;;;;6.06;70.50;95667.84;4146132;28;20045;-72
2022/11/14 06:08:19;;;;;;;75.10;42.33;;;;;;;6.08;70.94;95660.78;4156398;28;20080;-74
2022/11/14 06:10:21;;;;;;;68.60;40.17;;;;;;;6.12;71.09;95667.41;4145170;28;20129;-74
2022/11/14 06:12:22;;;;;;;79.18;41.33;;;;;;;6.18;70.97;95675.75;4145152;28;20550;-72
2022/11/14 06:14:24;;;;;;;69.35;40.35;;;;;;;6.11;70.73;95680.56;4146958;28;20058;-73
2022/11/14 06:16:26;;;;;;;73.53;41.85;;;;;;;6.10;71.27;95679.72;4145263;28;20097;-74
2022/11/14 06:18:28;;;;;;;68.53;39.20;;;;;;;6.00;71.51;95680.47;4146577;28;20543;-74
2022/11/14 06:20:31;;;;;;;70.68;39.92;;;;;;;6.02;71.33;95686.38;4146021;28;20065;-75
2022/11/14 06:22:33;;;;;;;66.82;38.80;;;;;;;6.01;71.08;95688.16;4145178;28;20085;-72
2022/11/14 06:24:35;;;;;;;73.00;39.37;;;;;;;6.00;71.38;95680.47;4144385;28;20046;-72
2022/11/14 06:26:37;;;;;;;70.50;39.38;;;;;;;5.97;71.40;95676.31;4146295;28;20080;-74
2022/11/14 06:28:38;;;;;;;75.15;39.20;;;;;;;5.99;71.97;95679.63;4146184;28;20141;-73
2022/11/14 06:30:40;;;;;;;65.07;40.13;;;;;;;6.05;72.21;95670.59;4146510;28;20808;-77
2022/11/14 06:32:42;;;;;;;72.47;39.40;;;;;;;6.11;71.48;95672.75;4145698;28;20069;-77
2022/11/14 06:34:44;;;;;;;72.15;39.13;;;;;;;6.11;71.35;95672.75;4128830;28;20518;-76
2022/11/14 06:36:45;;;;;;;64.75;39.10;;;;;;;6.08;71.16;95676.38;4146405;28;20054;-77
2022/11/14 06:38:47;;;;;;;66.28;38.22;;;;;;;6.05;71.39;95678.38;4145799;28;20136;-78
2022/11/14 06:40:49;;;;;;;66.75;39.80;;;;;;;6.11;71.69;95672.75;4128958;28;20069;-76
2022/11/14 06:42:54;;;;;;;65.95;40.15;;;;;;;6.14;71.24;95675.13;4140920;28;20054;-75
2022/11/14 06:44:56;;;;;;;66.50;38.75;;;;;;;6.17;71.46;95671.47;4127393;28;20153;-75
2022/11/14 06:46:57;;;;;;;63.72;38.95;;;;;;;6.22;71.47;95670.22;4134799;28;20096;-76
2022/11/14 06:48:59;;;;;;;63.60;38.72;;;;;;;6.18;71.38;95668.78;4144873;28;20472;-75
2022/11/14 06:51:02;;;;;;;68.55;38.55;;;;;;;6.24;71.07;95668.34;4145005;28;20436;-76
2022/11/14 06:53:03;;;;;;;66.63;38.50;;;;;;;6.35;71.44;95664.97;4145808;28;20111;-74
2022/11/14 06:55:05;;;;;;;63.15;37.50;;;;;;;6.41;71.19;95659.34;4144410;28;21025;-73
2022/11/14 06:57:07;;;;;;;63.95;37.80;;;;;;;6.43;71.13;95665.28;4145850;28;20060;-75
2022/11/14 06:59:09;;;;;;;61.63;37.90;;;;;;;6.44;70.36;95669.50;4144338;28;20136;-72
2022/11/14 07:01:20;;;;;;;67.03;39.05;;;;;;;6.47;69.96;95663.25;4145004;28;20088;-74
2022/11/14 07:03:22;;;;;;;76.10;44.38;;;;;;;6.48;70.63;95659.72;4145913;28;20527;-72
2022/11/14 07:05:24;;;;;;;70.03;41.10;;;;;;;6.49;70.56;95650.97;4145791;28;20046;-75
2022/11/14 07:07:25;;;;;;;76.63;45.20;;;;;;;6.54;70.89;95654.91;4145710;28;20128;-74
2022/11/14 07:09:29;;;;;;;75.35;42.63;;;;;;;6.65;70.69;95661.13;4144337;28;20312;-74
2022/11/14 07:11:32;;;;;;;76.60;41.92;;;;;;;6.67;70.07;95654.84;4138359;28;20096;-73
2022/11/14 07:13:34;;;;;;;80.43;43.97;;;;;;;6.62;70.17;95661.31;4145579;28;20518;-71
2022/11/14 07:15:36;;;;;;;76.20;43.58;;;;;;;6.65;70.54;95663.72;4145151;28;20133;-73
2022/11/14 07:17:37;;;;;;;77.30;42.67;;;;;;;6.66;70.66;95660.16;4143491;28;20392;-73
2022/11/14 07:19:39;;;;;;;77.85;42.63;;;;;;;6.65;70.90;95661.94;4144326;28;20053;-74
2022/11/14 07:21:41;;;;;;;74.43;42.72;;;;;;;6.60;70.15;95664.03;4144898;28;20132;-74
2022/11/14 07:23:42;;;;;;;68.90;43.10;;;;;;;6.60;70.90;95664.03;4143865;28;20496;-74
2022/11/14 07:25:44;;;;;;;73.45;42.30;;;;;;;6.64;71.23;95664.66;4147384;28;20535;-74
2022/11/14 07:27:46;;;;;;;66.05;39.92;;;;;;;6.75;70.54;95664.69;4145649;28;20049;-73
2022/11/14 07:29:48;;;;;;;72.25;40.85;;;;;;;6.79;70.40;95663.53;4145771;28;20085;-73
2022/11/14 07:31:49;;;;;;;67.70;39.00;;;;;;;6.85;70.18;95663.06;4144545;28;20473;-73
2022/11/14 07:33:51;;;;;;;62.35;38.22;;;;;;;6.90;70.75;95658.34;4144711;28;20137;-77
2022/11/14 07:35:53;;;;;;;71.70;38.85;;;;;;;7.05;70.56;95653.78;4147854;28;20048;-75
2022/11/14 07:38:00;;;;;;;74.55;40.83;;;;;;;7.13;69.73;95656.66;4144319;28;20053;-76
2022/11/14 07:40:02;;;;;;;67.97;39.38;;;;;;;7.16;69.87;95639.94;4145586;28;20168;-77
2022/11/14 07:42:04;;;;;;;69.20;43.35;;;;;;;7.29;69.69;95645.06;4143825;28;20153;-76
2022/11/14 07:44:05;;;;;;;89.32;48.28;;;;;;;7.35;68.81;95648.03;4140636;28;20061;-75
2022/11/14 07:46:10;;;;;;;95.95;49.72;;;;;;;7.20;68.79;95645.78;4144357;28;20551;-77
2022/11/14 07:48:12;;;;;;;98.90;49.83;;;;;;;6.95;69.83;95645.00;4142996;28;20145;-76
2022/11/14 07:50:13;;;;;;;105.57;52.42;;;;;;;6.87;70.21;95645.56;4145338;28;20145;-77
2022/11/14 07:52:20;;;;;;;99.68;49.10;;;;;;;6.44;70.69;95651.28;4145064;28;20061;-77
2022/11/14 07:54:22;;;;;;;101.35;51.78;;;;;;;6.11;72.73;95652.78;4142156;28;20136;-74
2022/11/14 07:56:25;;;;;;;111.22;53.30;;;;;;;5.90;73.52;95651.63;4144691;28;20056;-74
2022/11/14 07:58:27;;;;;;;110.95;53.10;;;;;;;5.76;75.05;95652.59;4144712;28;20168;-78
2022/11/14 08:00:29;;;;;;;119.55;54.80;;;;;;;5.51;75.30;95648.25;4144886;28;20081;-75
2022/11/14 08:02:31;;;;;;;112.85;54.85;;;;;;;5.56;75.35;95647.94;4142883;28;20080;-75
2022/11/14 08:04:32;;;;;;;116.00;53.70;;;;;;;5.51;75.73;95643.88;4145037;28;20553;-75
2022/11/14 08:06:34;;;;;;;106.78;56.40;;;;;;;5.66;76.05;95646.38;4145498;28;20136;-75
2022/11/14 08:08:36;;;;;;;116.82;56.00;;;;;;;5.78;76.02;95647.28;4144541;28;20081;-75
2022/11/14 08:10:38;;;;;;;110.45;56.83;;;;;;;5.98;75.28;95638.97;4141466;28;20123;-75
2022/11/14 08:12:40;;;;;;;111.55;57.03;;;;;;;6.19;74.56;95643.56;4144758;28;20133;-73
2022/11/14 08:14:41;;;;;;;114.60;54.80;;;;;;;6.35;73.50;95636.34;4144581;28;20057;-76
2022/11/14 08:16:43;;;;;;;117.07;57.03;;;;;;;6.49;72.96;95641.38;4142310;28;20155;-76
2022/11/14 08:18:45;;;;;;;118.22;57.97;;;;;;;6.64;72.24;95641.22;4143562;28;20108;-76
2022/11/14 08:20:46;;;;;;;113.32;55.03;;;;;;;6.60;72.15;95635.38;4143003;28;20105;-74
2022/11/14 08:22:48;;;;;;;107.85;56.22;;;;;;;6.72;72.16;95638.88;4143119;28;20145;-77
2022/11/14 08:24:50;;;;;;;109.40;56.78;;;;;;;6.82;71.85;95626.84;4142796;28;20042;-75
2022/11/14 08:26:51;;;;;;;91.03;49.92;;;;;;;6.79;71.18;95642.69;4144556;28;20076;-76
2022/11/14 08:28:53;;;;;;;94.90;49.83;;;;;;;6.74;71.41;95631.78;4143305;28;20140;-77
2022/11/14 08:31:02;;;;;;;80.00;44.35;;;;;;;6.87;71.46;95629.94;4142357;28;20137;-77
2022/11/14 08:33:05;;;;;;;84.15;47.67;;;;;;;6.91;71.37;95633.16;4126049;28;20074;-75
2022/11/14 08:35:06;;;;;;;73.75;42.30;;;;;;;7.08;71.18;95630.13;4141895;28;20100;-73
2022/11/14 08:37:08;;;;;;;72.38;43.20;;;;;;;7.17;70.72;95631.22;4144780;28;20053;-77
2022/11/14 08:39:10;;;;;;;69.53;39.40;;;;;;;7.36;70.40;95630.66;4135348;28;20054;-76
2022/11/14 08:41:12;;;;;;;72.18;43.00;;;;;;;7.41;69.81;95628.50;4137721;28;20136;-75
2022/11/14 08:43:13;;;;;;;78.85;43.60;;;;;;;7.46;69.45;95626.38;4140173;28;20162;-76
2022/11/14 08:45:15;;;;;;;74.70;42.38;;;;;;;7.47;68.55;95629.84;4142646;28;20092;-74
2022/11/14 08:47:17;;;;;;;76.90;45.67;;;;;;;7.41;69.09;95627.69;4144130;28;20061;-79
2022/11/14 08:49:18;;;;;;;77.60;43.95;;;;;;;7.54;68.78;95628.41;4144412;28;20058;-76
2022/11/14 08:51:20;;;;;;;72.05;44.53;;;;;;;7.56;69.19;95623.91;4144154;28;20552;-76
2022/11/14 08:53:21;;;;;;;74.28;45.90;;;;;;;7.63;68.98;95622.47;4143985;28;20204;-76
2022/11/14 08:55:23;;;;;;;80.60;46.53;;;;;;;7.67;68.39;95617.88;4142431;28;20077;-75
2022/11/14 08:57:25;;;;;;;79.07;48.25;;;;;;;7.64;67.89;95611.13;4144524;28;20684;-74
2022/11/14 08:59:27;;;;;;;80.65;47.67;;;;;;;7.64;68.21;95616.34;4143122;28;20518;-75
2022/11/14 09:01:28;;;;;;;78.80;45.88;;;;;;;7.66;68.15;95613.59;4143312;28;20224;-78
2022/11/14 09:03:30;;;;;;;86.93;47.92;;;;;;;7.74;68.48;95612.06;4142510;28;20058;-75
2022/11/14 09:05:33;;;;;;;91.75;47.42;;;;;;;7.81;67.78;95612.41;4144586;28;20158;-75
2022/11/14 09:07:35;;;;;;;78.68;46.72;;;;;;;7.85;67.42;95608.63;4126464;28;20058;-77
2022/11/14 09:09:36;;;;;;;78.45;47.92;;;;;;;7.94;68.17;95607.91;4140541;28;20062;-76
2022/11/14 09:11:38;;;;;;;75.95;46.90;;;;;;;8.09;67.47;95598.03;4143222;28;20061;-74
2022/11/14 09:13:40;;;;;;;79.03;46.42;;;;;;;8.03;67.03;95602.91;4144009;28;20090;-75
2022/11/14 09:15:42;;;;;;;76.82;46.35;;;;;;;8.06;67.10;95598.25;4143665;28;20124;-75
2022/11/14 09:17:43;;;;;;;83.13;46.22;;;;;;;8.07;67.09;95593.88;4141704;28;20062;-75
2022/11/14 09:19:45;;;;;;;83.72;47.08;;;;;;;8.05;66.71;95586.19;4131361;28;20132;-75
2022/11/14 09:21:47;;;;;;;78.32;44.97;;;;;;;8.01;66.66;95587.38;4144157;28;20053;-75
2022/11/14 09:23:48;;;;;;;79.32;46.25;;;;;;;7.41;68.15;95585.97;4143541;28;20135;-71
2022/11/14 09:25:50;;;;;;;78.40;49.08;;;;;;;7.35;69.30;95584.66;4143969;28;20061;-74
2022/11/14 09:27:52;;;;;;;84.18;50.20;;;;;;;7.48;69.07;95587.16;4143238;28;20054;-73
2022/11/14 09:29:54;;;;;;;79.28;48.60;;;;;;;7.67;69.33;95584.78;4144005;28;20120;-73